createdAt,value
2018-02-11T00:01:56.604Z,71.30
2018-02-11T00:04:24.231Z,71.30
2018-02-11T00:06:51.835Z,70.90
2018-02-11T00:09:19.427Z,71.20
2018-02-11T00:11:47.822Z,70.10
2018-02-11T00:14:16.168Z,70.20
2018-02-11T00:16:43.788Z,70.20
2018-02-11T00:19:11.380Z,69.60
2018-02-11T00:21:38.975Z,69.80
2018-02-11T00:24:07.344Z,68.90
2018-02-11T00:26:35.747Z,69.10
2018-02-11T00:29:03.372Z,69.10
2018-02-11T00:31:30.959Z,68.80
2018-02-11T00:33:58.561Z,68.40
2018-02-11T00:36:26.130Z,68.40
2018-02-11T00:38:53.734Z,68.80
2018-02-11T00:41:22.068Z,68.90
2018-02-11T00:43:49.704Z,68.80
2018-02-11T00:46:17.288Z,69.00
2018-02-11T00:48:44.902Z,69.10
2018-02-11T00:51:12.533Z,69.20
2018-02-11T00:53:40.182Z,69.20
2018-02-11T00:56:09.753Z,70.10
2018-02-11T00:58:37.332Z,69.30
2018-02-11T01:01:04.939Z,69.50
2018-02-11T01:03:32.528Z,69.80
2018-02-11T01:06:00.139Z,69.90
2018-02-11T01:08:27.694Z,69.90
2018-02-11T01:10:55.292Z,70.20
2018-02-11T01:13:22.883Z,69.90
2018-02-11T01:15:50.447Z,70.30
2018-02-11T01:18:18.067Z,69.90
2018-02-11T01:20:45.663Z,70.30
2018-02-11T01:23:13.254Z,69.90
2018-02-11T01:25:40.843Z,69.80
2018-02-11T01:28:09.206Z,69.70
2018-02-11T01:30:37.560Z,70.00
2018-02-11T01:33:05.187Z,69.90
2018-02-11T01:35:32.761Z,70.10
2018-02-11T01:38:00.378Z,69.10
2018-02-11T01:40:28.762Z,68.00
2018-02-11T01:42:56.361Z,67.90
2018-02-11T01:45:23.924Z,67.20
2018-02-11T01:47:51.576Z,66.60
2018-02-11T01:50:19.215Z,66.60
2018-02-11T01:52:46.846Z,66.00
2018-02-11T01:55:14.462Z,65.30
2018-02-11T01:57:42.066Z,64.90
2018-02-11T02:00:10.394Z,64.40
2018-02-11T02:02:37.980Z,64.40
2018-02-11T02:05:05.594Z,64.60
2018-02-11T02:07:33.142Z,64.40
2018-02-11T02:10:00.701Z,64.10
2018-02-11T02:12:28.276Z,64.00
2018-02-11T02:14:55.867Z,63.00
2018-02-11T02:17:23.474Z,62.80
2018-02-11T02:19:51.063Z,62.10
2018-02-11T02:22:18.658Z,61.90
2018-02-11T02:24:46.247Z,61.90
2018-02-11T02:27:14.603Z,61.50
2018-02-11T02:29:42.208Z,61.40
2018-02-11T02:32:09.823Z,61.60
2018-02-11T02:34:37.425Z,59.70
2018-02-11T02:37:05.792Z,59.30
2018-02-11T02:39:33.401Z,59.30
2018-02-11T02:42:01.024Z,59.40
2018-02-11T02:44:28.608Z,58.60
2018-02-11T02:46:56.191Z,57.40
2018-02-11T02:49:23.785Z,57.30
2018-02-11T02:51:52.140Z,57.30
2018-02-11T02:54:19.698Z,57.10
2018-02-11T02:56:47.302Z,56.40
2018-02-11T02:59:14.897Z,57.30
2018-02-11T03:01:42.496Z,56.20
2018-02-11T03:04:10.930Z,56.10
2018-02-11T03:06:38.485Z,56.10
2018-02-11T03:09:06.104Z,55.90
2018-02-11T03:11:33.713Z,55.10
2018-02-11T03:14:01.295Z,54.80
2018-02-11T03:16:28.847Z,54.60
2018-02-11T03:18:56.444Z,55.10
2018-02-11T03:21:24.810Z,54.90
2018-02-11T03:23:52.391Z,54.90
2018-02-11T03:26:19.998Z,55.10
2018-02-11T03:28:47.546Z,55.10
2018-02-11T03:31:15.153Z,55.30
2018-02-11T03:33:43.556Z,55.80
2018-02-11T03:36:11.146Z,55.60
2018-02-11T03:38:38.711Z,55.40
2018-02-11T03:41:06.327Z,55.90
2018-02-11T03:43:34.664Z,55.80
2018-02-11T03:46:02.271Z,55.70
2018-02-11T03:48:29.863Z,56.10
2018-02-11T03:50:57.427Z,56.30
2018-02-11T03:53:25.029Z,56.70
2018-02-11T03:55:53.404Z,57.40
2018-02-11T03:58:21.011Z,56.80
2018-02-11T04:00:48.595Z,57.00
2018-02-11T04:03:16.214Z,56.50
2018-02-11T04:05:43.808Z,56.70
2018-02-11T04:08:11.389Z,56.70
2018-02-11T04:10:38.978Z,56.90
2018-02-11T04:13:07.362Z,57.00
2018-02-11T04:15:35.698Z,56.90
2018-02-11T04:18:03.351Z,56.80
2018-02-11T04:20:30.902Z,57.20
2018-02-11T04:22:58.462Z,56.80
2018-02-11T04:25:26.061Z,56.70
2018-02-11T04:27:54.422Z,57.70
2018-02-11T04:30:22.039Z,56.90
2018-02-11T04:32:49.585Z,57.00
2018-02-11T04:35:17.138Z,57.00
2018-02-11T04:37:45.493Z,57.10
2018-02-11T04:40:13.112Z,57.10
2018-02-11T04:42:40.729Z,57.50
2018-02-11T04:45:08.351Z,57.10
2018-02-11T04:47:35.961Z,57.10
2018-02-11T04:50:03.546Z,56.70
2018-02-11T04:52:31.102Z,56.50
2018-02-11T04:54:58.688Z,56.70
2018-02-11T04:57:26.269Z,56.80
2018-02-11T04:59:53.879Z,56.50
2018-02-11T05:02:21.506Z,56.70
2018-02-11T05:04:49.861Z,56.80
2018-02-11T05:07:17.477Z,56.80
2018-02-11T05:09:45.094Z,56.70
2018-02-11T05:12:12.663Z,56.70
2018-02-11T05:14:40.258Z,56.80
2018-02-11T05:17:07.867Z,57.20
2018-02-11T05:19:35.447Z,56.80
2018-02-11T05:22:03.799Z,56.80
2018-02-11T05:24:31.366Z,56.70
2018-02-11T05:26:58.987Z,56.40
2018-02-11T05:29:27.316Z,56.40
2018-02-11T05:31:55.672Z,56.70
2018-02-11T05:34:23.231Z,56.50
2018-02-11T05:36:50.824Z,56.50
2018-02-11T05:39:19.162Z,56.20
2018-02-11T05:41:46.745Z,56.20
2018-02-11T05:44:14.375Z,56.30
2018-02-11T05:46:41.994Z,56.20
2018-02-11T05:49:09.586Z,56.50
2018-02-11T05:51:37.210Z,56.10
2018-02-11T05:54:04.803Z,56.30
2018-02-11T05:56:33.146Z,56.30
2018-02-11T05:59:00.726Z,56.30
2018-02-11T06:01:28.314Z,56.50
2018-02-11T06:07:13.981Z,56.30
2018-02-11T06:09:41.588Z,56.00
2018-02-11T06:12:09.185Z,55.90
2018-02-11T06:14:37.523Z,56.00
2018-02-11T06:17:05.103Z,56.00
2018-02-11T06:19:32.726Z,56.30
2018-02-11T06:22:01.319Z,55.50
2018-02-11T06:24:35.011Z,55.40
2018-02-11T06:27:04.556Z,55.30
2018-02-11T06:29:32.169Z,55.70
2018-02-11T06:31:59.780Z,55.20
2018-02-11T06:34:45.812Z,54.90
2018-02-11T06:37:13.411Z,55.20
2018-02-11T06:39:40.994Z,55.30
2018-02-11T06:42:13.076Z,54.90
2018-02-11T06:44:41.391Z,54.90
2018-02-11T06:47:09.023Z,54.90
2018-02-11T06:49:37.467Z,54.80
2018-02-11T06:52:05.074Z,54.40
2018-02-11T06:54:33.603Z,54.80
2018-02-11T06:57:01.206Z,54.70
2018-02-11T06:59:28.780Z,54.20
2018-02-11T07:01:56.365Z,54.30
2018-02-11T07:04:23.931Z,54.20
2018-02-11T07:06:57.454Z,54.00
2018-02-11T07:09:25.102Z,54.00
2018-02-11T07:11:52.725Z,53.40
2018-02-11T07:14:21.107Z,53.40
2018-02-11T07:16:49.627Z,53.40
2018-02-11T07:19:17.195Z,53.20
2018-02-11T07:22:10.516Z,54.00
2018-02-11T07:24:38.074Z,53.10
2018-02-11T07:27:05.692Z,52.90
2018-02-11T07:29:34.072Z,52.70
2018-02-11T07:32:02.431Z,52.20
2018-02-11T07:34:34.623Z,52.10
2018-02-11T07:37:03.005Z,52.60
2018-02-11T07:39:30.615Z,52.40
2018-02-11T07:41:58.207Z,52.70
2018-02-11T07:44:26.558Z,52.30
2018-02-11T07:46:54.144Z,52.30
2018-02-11T07:49:22.517Z,52.10
2018-02-11T07:52:05.197Z,52.10
2018-02-11T07:54:32.806Z,52.20
2018-02-11T07:57:01.138Z,52.30
2018-02-11T07:59:28.691Z,52.20
2018-02-11T08:01:56.282Z,51.50
2018-02-11T08:04:23.852Z,52.00
2018-02-11T08:06:51.437Z,51.70
2018-02-11T08:09:19.011Z,52.20
2018-02-11T08:11:46.615Z,51.40
2018-02-11T08:14:14.247Z,52.00
2018-02-11T08:16:41.799Z,51.00
2018-02-11T08:19:09.415Z,50.50
2018-02-11T08:21:37.755Z,50.40
2018-02-11T08:24:05.308Z,50.30
2018-02-11T08:26:32.942Z,50.30
2018-02-11T08:29:00.541Z,50.50
2018-02-11T08:31:28.114Z,49.90
2018-02-11T08:33:55.718Z,49.60
2018-02-11T08:36:23.280Z,48.20
2018-02-11T08:38:50.887Z,48.70
2018-02-11T08:41:18.484Z,48.50
2018-02-11T08:43:46.863Z,48.70
2018-02-11T08:46:14.501Z,48.70
2018-02-11T08:48:42.068Z,48.90
2018-02-11T08:51:09.658Z,48.80
2018-02-11T08:53:37.243Z,49.20
2018-02-11T08:56:04.778Z,49.20
2018-02-11T08:58:32.354Z,49.80
2018-02-11T09:00:59.910Z,49.00
2018-02-11T09:03:27.578Z,49.30
2018-02-11T09:05:55.134Z,49.40
2018-02-11T09:08:22.749Z,49.60
2018-02-11T09:10:50.323Z,49.60
2018-02-11T09:13:18.669Z,50.00
2018-02-11T09:15:46.220Z,50.50
2018-02-11T09:18:13.888Z,50.40
2018-02-11T09:20:41.524Z,50.60
2018-02-11T09:23:09.114Z,50.80
2018-02-11T09:25:36.713Z,51.00
2018-02-11T09:28:04.310Z,50.40
2018-02-11T09:30:31.936Z,50.90
2018-02-11T09:33:00.482Z,51.00
2018-02-11T09:35:28.079Z,51.60
2018-02-11T09:37:55.644Z,52.30
2018-02-11T09:40:23.262Z,51.90
2018-02-11T09:42:50.853Z,52.40
2018-02-11T09:45:18.451Z,52.80
2018-02-11T09:47:46.023Z,53.80
2018-02-11T09:50:13.579Z,52.50
2018-02-11T09:52:41.173Z,53.60
2018-02-11T09:55:09.518Z,53.00
2018-02-11T09:57:37.070Z,53.00
2018-02-11T10:00:04.679Z,53.20
2018-02-11T10:02:33.044Z,53.50
2018-02-11T10:05:00.658Z,53.50
2018-02-11T10:07:28.273Z,53.30
2018-02-11T10:09:56.643Z,55.10
2018-02-11T10:12:25.003Z,55.20
2018-02-11T10:14:52.612Z,55.20
2018-02-11T10:17:20.187Z,55.00
2018-02-11T10:19:47.787Z,55.60
2018-02-11T10:22:15.408Z,55.80
2018-02-11T10:24:43.064Z,56.60
2018-02-11T10:27:10.620Z,57.50
2018-02-11T10:29:38.471Z,57.90
2018-02-11T10:32:06.114Z,58.90
2018-02-11T10:34:34.495Z,60.00
2018-02-11T10:37:02.894Z,59.50
2018-02-11T10:39:30.466Z,59.50
2018-02-11T10:41:58.058Z,59.60
2018-02-11T10:44:25.677Z,59.10
2018-02-11T10:46:53.249Z,59.00
2018-02-11T10:49:20.864Z,59.30
2018-02-11T10:51:48.509Z,59.20
2018-02-11T10:54:16.143Z,57.30
2018-02-11T10:56:43.733Z,57.30
2018-02-11T10:59:11.340Z,55.80
2018-02-11T11:01:38.995Z,56.90
2018-02-11T11:04:06.586Z,56.50
2018-02-11T11:06:34.203Z,56.40
2018-02-11T11:09:02.558Z,57.30
2018-02-11T11:11:30.188Z,57.30
2018-02-11T11:13:57.764Z,58.20
2018-02-11T11:16:25.387Z,58.80
2018-02-11T11:18:52.958Z,59.00
2018-02-11T11:21:20.544Z,59.50
2018-02-11T11:23:48.138Z,59.90
2018-02-11T11:26:15.781Z,59.40
2018-02-11T11:28:43.329Z,59.70
2018-02-11T11:31:10.896Z,59.90
2018-02-11T11:33:38.463Z,60.80
2018-02-11T11:36:06.085Z,61.50
2018-02-11T11:38:33.699Z,62.20
2018-02-11T11:41:02.071Z,65.10
2018-02-11T11:43:30.433Z,67.90
2018-02-11T11:45:58.057Z,68.30
2018-02-11T11:48:25.638Z,68.70
2018-02-11T11:50:53.271Z,70.30
2018-02-11T11:53:20.882Z,69.70
2018-02-11T11:55:48.505Z,70.50
2018-02-11T11:58:16.129Z,70.20
2018-02-11T12:00:43.767Z,70.00
2018-02-11T12:03:11.374Z,70.10
2018-02-11T12:05:38.983Z,71.80
2018-02-11T12:08:06.588Z,72.50
2018-02-11T12:10:34.226Z,72.80
2018-02-11T12:13:02.564Z,73.30
2018-02-11T12:15:30.177Z,73.10
2018-02-11T12:17:57.771Z,74.20
2018-02-11T12:20:25.367Z,74.50
2018-02-11T12:22:53.759Z,74.10
2018-02-11T12:25:22.131Z,74.70
2018-02-11T12:27:50.507Z,74.10
2018-02-11T12:30:18.865Z,73.70
2018-02-11T12:32:46.479Z,73.50
2018-02-11T12:35:14.103Z,73.70
2018-02-11T12:37:41.683Z,72.90
2018-02-11T12:40:09.284Z,72.50
2018-02-11T12:42:36.857Z,72.10
2018-02-11T12:45:04.488Z,71.80
2018-02-11T12:47:32.080Z,72.30
2018-02-11T12:49:59.693Z,72.50
2018-02-11T12:52:27.253Z,72.00
2018-02-11T12:54:54.858Z,72.20
2018-02-11T12:57:22.406Z,71.50
2018-02-11T12:59:50.026Z,71.60
2018-02-11T13:02:17.613Z,71.30
2018-02-11T13:04:45.208Z,71.10
2018-02-11T13:07:12.797Z,70.70
2018-02-11T13:09:41.180Z,71.10
2018-02-11T13:12:08.780Z,71.00
2018-02-11T13:14:36.345Z,71.60
2018-02-11T13:17:03.963Z,72.00
2018-02-11T13:19:32.294Z,71.30
2018-02-11T13:21:59.916Z,71.30
2018-02-11T13:24:27.495Z,71.60
2018-02-11T13:26:55.060Z,71.30
2018-02-11T13:29:22.681Z,71.70
2018-02-11T13:31:50.709Z,71.70
2018-02-11T13:34:18.325Z,71.30
2018-02-11T13:36:45.924Z,71.00
2018-02-11T13:39:13.548Z,71.30
2018-02-11T13:41:41.108Z,71.30
2018-02-11T13:44:14.742Z,71.60
2018-02-11T13:46:42.343Z,72.00
2018-02-11T13:49:10.732Z,72.00
2018-02-11T13:51:38.322Z,71.90
2018-02-11T13:54:05.939Z,72.20
2018-02-11T13:56:34.303Z,71.70
2018-02-11T13:59:01.922Z,71.70
2018-02-11T14:01:29.555Z,72.50
2018-02-11T14:03:57.982Z,72.20
2018-02-11T14:06:25.546Z,72.10
2018-02-11T14:08:53.164Z,73.20
2018-02-11T14:11:20.782Z,72.50
2018-02-11T14:13:48.396Z,73.10
2018-02-11T14:16:16.002Z,73.20
2018-02-11T14:18:43.639Z,73.60
2018-02-11T14:21:11.241Z,74.30
2018-02-11T14:23:39.622Z,74.00
2018-02-11T14:26:07.972Z,74.00
2018-02-11T14:28:35.509Z,73.90
2018-02-11T14:31:03.146Z,73.80
2018-02-11T14:33:30.734Z,73.80
2018-02-11T14:35:58.294Z,73.80
2018-02-11T14:38:25.924Z,73.90
2018-02-11T14:40:53.524Z,75.20
2018-02-11T14:43:21.157Z,74.60
2018-02-11T14:45:48.743Z,74.20
2018-02-11T14:48:16.324Z,74.30
2018-02-11T14:50:45.865Z,74.50
2018-02-11T14:53:13.500Z,74.60
2018-02-11T14:55:41.862Z,75.80
2018-02-11T14:58:09.484Z,75.70
2018-02-11T15:00:38.043Z,75.90
2018-02-11T15:03:05.613Z,75.90
2018-02-11T15:05:33.175Z,76.20
2018-02-11T15:08:00.766Z,77.20
2018-02-11T15:10:28.369Z,77.10
2018-02-11T15:12:56.754Z,76.70
2018-02-11T15:15:25.125Z,76.40
2018-02-11T15:17:53.479Z,76.30
2018-02-11T15:20:21.083Z,76.20
2018-02-11T15:22:48.711Z,76.60
2018-02-11T15:25:16.271Z,76.70
2018-02-11T15:27:43.847Z,76.40
2018-02-11T15:30:12.203Z,76.00
2018-02-11T15:32:39.807Z,75.90
2018-02-11T15:35:07.391Z,76.50
2018-02-11T15:37:35.035Z,76.50
2018-02-11T15:40:02.610Z,76.60
2018-02-11T15:42:30.182Z,76.20
2018-02-11T15:44:57.817Z,76.90
2018-02-11T15:47:25.403Z,77.10
2018-02-11T15:49:53.006Z,76.30
2018-02-11T15:52:21.378Z,77.30
2018-02-11T15:54:49.753Z,77.90
2018-02-11T15:57:18.133Z,78.00
2018-02-11T15:59:45.706Z,77.90
2018-02-11T16:02:13.314Z,78.10
2018-02-11T16:04:41.914Z,77.80
2018-02-11T16:07:09.490Z,78.20
2018-02-11T16:09:37.857Z,78.50
2018-02-11T16:12:05.476Z,78.50
2018-02-11T16:14:52.661Z,77.90
2018-02-11T16:17:32.252Z,78.50
2018-02-11T16:19:59.813Z,78.50
2018-02-11T16:22:27.411Z,78.30
2018-02-11T16:24:55.004Z,78.70
2018-02-11T16:27:22.628Z,78.70
2018-02-11T16:29:50.200Z,78.00
2018-02-11T16:32:18.567Z,78.10
2018-02-11T16:34:46.177Z,78.10
2018-02-11T16:37:14.018Z,78.10
2018-02-11T16:39:41.335Z,78.20
2018-02-11T16:42:08.933Z,78.40
2018-02-11T16:44:36.473Z,78.50
2018-02-11T16:47:04.863Z,78.60
2018-02-11T16:49:33.211Z,78.60
2018-02-11T16:52:00.790Z,78.60
2018-02-11T16:54:29.176Z,79.30
2018-02-11T16:56:56.782Z,79.20
2018-02-11T16:59:24.403Z,79.70
2018-02-11T17:01:51.957Z,79.80
2018-02-11T17:04:20.341Z,79.80
2018-02-11T17:06:47.957Z,79.80
2018-02-11T17:09:15.543Z,79.90
2018-02-11T17:11:43.896Z,79.50
2018-02-11T17:14:11.488Z,79.40
2018-02-11T17:16:39.859Z,79.80
2018-02-11T17:19:08.223Z,79.40
2018-02-11T17:21:39.574Z,79.40
2018-02-11T17:24:07.167Z,79.30
2018-02-11T17:26:34.747Z,79.10
2018-02-11T17:29:02.338Z,79.20
2018-02-11T17:31:29.994Z,79.40
2018-02-11T17:33:57.619Z,79.20
2018-02-11T17:36:25.225Z,79.70
2018-02-11T17:38:52.822Z,79.70
2018-02-11T17:41:21.144Z,80.70
2018-02-11T17:43:48.743Z,80.50
2018-02-11T17:46:17.103Z,81.50
2018-02-11T17:48:44.699Z,81.40
2018-02-11T17:51:12.322Z,82.30
2018-02-11T17:53:39.935Z,82.60
2018-02-11T17:56:07.526Z,83.30
2018-02-11T17:58:35.205Z,83.80
2018-02-11T18:01:02.771Z,84.40
2018-02-11T18:03:30.382Z,84.70
2018-02-11T18:05:57.982Z,85.00
2018-02-11T18:08:25.579Z,85.60
2018-02-11T18:10:53.920Z,86.20
2018-02-11T18:13:21.545Z,86.10
2018-02-11T18:15:49.130Z,86.10
2018-02-11T18:18:19.992Z,86.20
2018-02-11T18:20:47.566Z,86.40
2018-02-11T18:23:15.937Z,86.10
2018-02-11T18:25:44.270Z,86.90
2018-02-11T18:28:11.833Z,86.50
2018-02-11T18:30:39.393Z,86.40
2018-02-11T18:33:07.006Z,86.10
2018-02-11T18:35:34.622Z,86.00
2018-02-11T18:38:02.242Z,86.40
2018-02-11T18:40:29.835Z,86.70
2018-02-11T18:42:57.426Z,86.90
2018-02-11T18:45:25.035Z,87.10
2018-02-11T18:47:52.614Z,87.90
2018-02-11T18:50:28.035Z,88.50
2018-02-11T18:52:55.640Z,89.00
2018-02-11T18:55:23.202Z,89.50
2018-02-11T18:57:50.815Z,89.60
2018-02-11T19:00:18.434Z,89.40
2018-02-11T19:02:46.012Z,89.10
2018-02-11T19:05:13.626Z,88.40
2018-02-11T19:07:57.754Z,88.60
2018-02-11T19:10:25.334Z,88.90
2018-02-11T19:12:52.878Z,88.90
2018-02-11T19:15:20.544Z,89.10
2018-02-11T19:17:48.100Z,88.80
2018-02-11T19:20:15.733Z,88.50
2018-02-11T19:22:43.342Z,88.20
2018-02-11T19:25:10.909Z,88.40
2018-02-11T19:27:38.516Z,87.60
2018-02-11T19:30:06.116Z,87.40
2018-02-11T19:32:33.726Z,87.10
2018-02-11T19:35:01.338Z,87.00
2018-02-11T19:37:28.954Z,87.10
2018-02-11T19:40:07.011Z,86.70
2018-02-11T19:42:34.599Z,86.30
2018-02-11T19:45:02.938Z,86.00
2018-02-11T19:47:30.580Z,86.00
2018-02-11T19:49:58.195Z,85.90
2018-02-11T19:52:26.559Z,85.10
2018-02-11T19:54:54.227Z,85.10
2018-02-11T19:57:21.791Z,84.30
2018-02-11T19:59:50.188Z,84.10
2018-02-11T20:02:17.757Z,84.00
2018-02-11T20:04:45.359Z,84.20
2018-02-11T20:07:13.002Z,83.20
2018-02-11T20:09:40.639Z,82.40
2018-02-11T20:12:08.245Z,82.20
2018-02-11T20:14:35.823Z,82.60
2018-02-11T20:17:03.483Z,82.20
2018-02-11T20:19:31.046Z,82.60
2018-02-11T20:22:01.686Z,82.40
2018-02-11T20:24:29.290Z,82.70
2018-02-11T20:26:56.906Z,82.20
2018-02-11T20:29:24.496Z,83.10
2018-02-11T20:31:52.043Z,82.10
2018-02-11T20:34:20.413Z,82.70
2018-02-11T20:36:48.763Z,82.20
2018-02-11T20:39:16.384Z,82.20
2018-02-11T20:41:44.004Z,82.10
2018-02-11T20:44:12.366Z,82.40
2018-02-11T20:46:45.317Z,82.30
2018-02-11T20:49:12.943Z,82.30
2018-02-11T20:51:41.280Z,82.10
2018-02-11T20:54:08.896Z,81.30
2018-02-11T20:56:36.478Z,81.20
2018-02-11T20:59:04.103Z,81.20
2018-02-11T21:01:32.443Z,80.50
2018-02-11T21:04:00.006Z,80.40
2018-02-11T21:06:27.605Z,80.20
2018-02-11T21:08:55.214Z,80.50
2018-02-11T21:11:22.829Z,80.20
2018-02-11T21:13:50.451Z,79.60
2018-02-11T21:16:18.085Z,79.50
2018-02-11T21:18:45.654Z,79.50
2018-02-11T21:21:13.284Z,79.50
2018-02-11T21:23:40.883Z,79.40
2018-02-11T21:26:08.501Z,79.60
2018-02-11T21:28:36.060Z,79.60
2018-02-11T21:31:03.677Z,79.80
2018-02-11T21:33:31.254Z,79.90
2018-02-11T21:35:59.654Z,79.80
2018-02-11T21:38:27.250Z,79.80
2018-02-11T21:40:54.851Z,79.90
2018-02-11T21:43:23.219Z,79.80
2018-02-11T21:45:50.830Z,79.60
2018-02-11T21:48:19.230Z,79.70
2018-02-11T21:50:46.856Z,79.70
2018-02-11T21:53:14.438Z,79.40
2018-02-11T21:55:41.995Z,79.40
2018-02-11T21:58:09.607Z,79.50
2018-02-11T22:00:37.182Z,79.50
2018-02-11T22:03:04.750Z,79.60
2018-02-11T22:05:32.346Z,79.30
2018-02-11T22:08:00.023Z,79.50
2018-02-11T22:10:27.630Z,78.90
2018-02-11T22:12:55.195Z,78.90
2018-02-11T22:15:22.750Z,78.60
2018-02-11T22:17:50.362Z,79.00
2018-02-11T22:20:17.988Z,79.60
2018-02-11T22:22:45.610Z,79.10
2018-02-11T22:25:13.984Z,78.70
2018-02-11T22:27:42.307Z,78.60
2018-02-11T22:30:09.932Z,78.40
2018-02-11T22:32:38.341Z,78.50
2018-02-11T22:35:05.966Z,78.50
2018-02-11T22:37:34.357Z,78.30
2018-02-11T22:40:01.976Z,78.30
2018-02-11T22:42:29.567Z,78.40
2018-02-11T22:44:58.011Z,78.30
2018-02-11T22:47:25.586Z,78.30
2018-02-11T22:49:53.132Z,78.00
2018-02-11T22:52:20.709Z,77.90
2018-02-11T22:54:48.278Z,77.90
2018-02-11T22:57:16.646Z,78.10
2018-02-11T22:59:44.255Z,78.00
2018-02-11T23:02:11.827Z,78.20
2018-02-11T23:04:39.409Z,78.20
2018-02-11T23:07:07.003Z,78.50
2018-02-11T23:09:35.396Z,78.20
2018-02-11T23:12:03.001Z,78.20
2018-02-11T23:14:30.610Z,78.40
2018-02-11T23:16:58.970Z,78.60
2018-02-11T23:19:38.346Z,77.80
2018-02-11T23:22:05.938Z,77.90
2018-02-11T23:24:33.546Z,76.90
2018-02-11T23:27:01.127Z,76.40
2018-02-11T23:29:28.681Z,76.20
2018-02-11T23:31:56.229Z,75.90
2018-02-11T23:34:23.840Z,75.90
2018-02-11T23:36:51.413Z,75.50
2018-02-11T23:39:18.997Z,74.90
2018-02-11T23:41:46.622Z,74.70
2018-02-11T23:44:14.216Z,73.70
2018-02-11T23:46:42.563Z,73.80
2018-02-11T23:49:10.134Z,73.70
2018-02-11T23:51:37.738Z,73.70
2018-02-11T23:54:05.339Z,73.60
2018-02-11T23:56:32.933Z,73.50
2018-02-11T23:59:01.277Z,72.60
